createdAt,value
2019-05-30T00:02:07.330Z,1026.55
2019-05-30T00:07:10.136Z,1026.46
2019-05-30T00:12:07.394Z,1026.48
2019-05-30T00:17:06.800Z,1026.54
2019-05-30T00:22:07.698Z,1026.58
2019-05-30T00:27:07.205Z,1026.56
2019-05-30T00:32:08.247Z,1026.6
2019-05-30T00:37:06.813Z,1026.61
2019-05-30T00:41:07.278Z,1026.64
2019-05-30T00:46:07.562Z,1026.65
2019-05-30T00:51:07.764Z,1026.62
2019-05-30T00:56:07.866Z,1026.66
2019-05-30T01:01:08.177Z,1026.65
2019-05-30T01:06:08.745Z,1026.66
2019-05-30T01:11:08.006Z,1026.67
2019-05-30T01:15:08.964Z,1026.71
2019-05-30T01:20:08.557Z,1026.66
2019-05-30T01:25:08.929Z,1026.69
2019-05-30T01:30:09.066Z,1026.76
2019-05-30T01:35:09.102Z,1026.75
2019-05-30T01:40:09.821Z,1026.76
2019-05-30T01:45:09.693Z,1026.7
2019-05-30T01:50:09.094Z,1026.72
2019-05-30T01:55:08.859Z,1026.7
2019-05-30T02:00:22.199Z,1026.72
2019-05-30T02:04:09.796Z,1026.69
2019-05-30T02:09:07.803Z,1026.66
2019-05-30T02:14:10.276Z,1026.67
2019-05-30T02:19:08.322Z,1026.64
2019-05-30T02:24:08.301Z,1026.63
2019-05-30T02:29:06.835Z,1026.7
2019-05-30T02:34:12.803Z,1026.73
2019-05-30T02:39:09.839Z,1026.81
2019-05-30T02:44:12.877Z,1026.81
2019-05-30T02:49:11.799Z,1026.87
2019-05-30T02:53:13.518Z,1026.83
2019-05-30T02:58:13.624Z,1026.93
2019-05-30T03:03:15.336Z,1026.98
2019-05-30T03:08:13.576Z,1027.05
2019-05-30T03:13:13.093Z,1027.11
2019-05-30T03:18:10.430Z,1027.07
2019-05-30T03:23:15.178Z,1027.13
2019-05-30T03:27:14.393Z,1027.18
2019-05-30T03:33:39.907Z,1027.17
2019-05-30T03:37:30.621Z,1027.18
2019-05-30T03:42:15.634Z,1027.15
2019-05-30T03:47:15.780Z,1027.17
2019-05-30T03:52:17.528Z,1027.17
2019-05-30T03:57:13.888Z,1027.17
2019-05-30T04:02:15.546Z,1027.17
2019-05-30T04:06:16.176Z,1027.18
2019-05-30T04:11:16.562Z,1027.23
2019-05-30T04:16:10.621Z,1027.23
2019-05-30T04:21:19.243Z,1027.16
2019-05-30T04:26:13.081Z,1027.23
2019-05-30T04:31:10.261Z,1027.23
2019-05-30T04:36:14.056Z,1027.31
2019-05-30T04:41:06.710Z,1027.25
2019-05-30T04:46:07.228Z,1027.26
2019-05-30T04:51:07.528Z,1027.27
2019-05-30T04:56:07.754Z,1027.28
2019-05-30T05:01:07.251Z,1027.21
2019-05-30T05:05:07.423Z,1027.2
2019-05-30T05:10:06.953Z,1027.25
2019-05-30T05:15:08.714Z,1027.17
2019-05-30T05:20:07.493Z,1027.18
2019-05-30T05:25:07.765Z,1027.14
2019-05-30T05:30:08.547Z,1027.13
2019-05-30T05:35:07.076Z,1027.14
2019-05-30T05:40:07.821Z,1027.12
2019-05-30T05:45:08.276Z,1027.12
2019-05-30T05:50:07.520Z,1027.15
2019-05-30T05:54:06.407Z,1027.16
2019-05-30T05:55:07.030Z,1027.16
2019-05-30T05:59:07.375Z,1027.12
2019-05-30T06:04:14.619Z,1027.02
2019-05-30T06:09:08.274Z,1027.06
2019-05-30T06:14:07.481Z,1027.09
2019-05-30T06:19:07.529Z,1027.03
2019-05-30T06:24:07.815Z,1027.08
2019-05-30T06:29:06.998Z,1027.04
2019-05-30T06:33:06.891Z,1027.12
2019-05-30T06:43:07.591Z,1027.01
2019-05-30T06:48:06.407Z,1026.98
2019-05-30T06:53:07.357Z,1026.98
2019-05-30T06:58:07.647Z,1026.91
2019-05-30T07:03:07.632Z,1026.88
2019-05-30T07:08:08.219Z,1026.86
2019-05-30T07:13:07.034Z,1026.81
2019-05-30T07:17:06.944Z,1026.82
2019-05-30T07:22:07.871Z,1026.76
2019-05-30T07:27:07.089Z,1026.74
2019-05-30T07:32:07.537Z,1026.72
2019-05-30T07:37:07.809Z,1026.76
2019-05-30T07:42:07.238Z,1026.76
2019-05-30T07:47:07.092Z,1026.77
2019-05-30T07:51:07.481Z,1026.72
2019-05-30T07:56:07.722Z,1026.74
2019-05-30T08:01:06.798Z,1026.7
2019-05-30T08:06:06.977Z,1026.7
2019-05-30T08:11:11.163Z,1026.64
2019-05-30T08:16:07.128Z,1026.61
2019-05-30T08:21:06.415Z,1026.61
2019-05-30T08:25:07.420Z,1026.59
2019-05-30T08:30:09.337Z,1026.51
2019-05-30T08:35:07.664Z,1026.47
2019-05-30T08:40:07.385Z,1026.36
2019-05-30T08:45:11.238Z,1026.35
2019-05-30T08:50:07.064Z,1026.39
2019-05-30T08:55:07.234Z,1026.29
2019-05-30T09:00:08.993Z,1026.3
2019-05-30T09:04:07.782Z,1026.15
2019-05-30T09:09:06.674Z,1026.25
2019-05-30T09:14:07.607Z,1026.18
2019-05-30T09:19:06.373Z,1026.1
2019-05-30T09:24:07.395Z,1026.1
2019-05-30T09:29:07.001Z,1026.15
2019-05-30T09:34:06.922Z,1025.9
2019-05-30T09:38:07.227Z,1025.93
2019-05-30T09:43:07.486Z,1025.95
2019-05-30T09:48:06.876Z,1025.77
2019-05-30T09:53:07.775Z,1025.82
2019-05-30T09:58:06.375Z,1025.97
2019-05-30T10:03:07.501Z,1025.88
2019-05-30T10:08:07.602Z,1025.79
2019-05-30T10:12:07.348Z,1025.79
2019-05-30T10:17:06.878Z,1025.68
2019-05-30T10:22:07.738Z,1025.55
2019-05-30T10:27:06.394Z,1025.7
2019-05-30T10:32:07.035Z,1025.6
2019-05-30T10:37:07.205Z,1025.58
2019-05-30T10:42:07.763Z,1025.59
2019-05-30T10:47:07.523Z,1025.56
2019-05-30T10:51:06.973Z,1025.42
2019-05-30T10:56:07.248Z,1025.41
2019-05-30T11:01:06.406Z,1025.28
2019-05-30T11:06:07.414Z,1025.08
2019-05-30T11:11:07.147Z,1025.15
2019-05-30T11:16:07.047Z,1025.16
2019-05-30T11:21:07.390Z,1024.99
2019-05-30T11:25:07.764Z,1024.98
2019-05-30T11:30:07.293Z,1024.96
2019-05-30T11:35:07.323Z,1024.8
2019-05-30T11:40:06.346Z,1024.77
2019-05-30T11:45:08.704Z,1024.68
2019-05-30T11:50:07.227Z,1024.66
2019-05-30T11:55:06.838Z,1024.69
2019-05-30T12:00:09.604Z,1024.59
2019-05-30T12:04:06.995Z,1024.57
2019-05-30T12:09:07.699Z,1024.52
2019-05-30T12:14:07.165Z,1024.55
2019-05-30T12:19:06.650Z,1024.45
2019-05-30T12:24:07.576Z,1024.31
2019-05-30T12:29:06.247Z,1024.39
2019-05-30T12:34:07.173Z,1024.49
2019-05-30T12:39:07.383Z,1024.4
2019-05-30T12:43:07.402Z,1024.38
2019-05-30T12:48:07.690Z,1024.23
2019-05-30T12:53:07.314Z,1024.26
2019-05-30T12:58:08.246Z,1024.15
2019-05-30T13:03:08.373Z,1024.14
2019-05-30T13:08:22.798Z,1024.03
2019-05-30T13:13:07.466Z,1024.09
2019-05-30T13:18:08.179Z,1024.04
2019-05-30T13:22:08.068Z,1024.09
2019-05-30T13:27:07.900Z,1024.2
2019-05-30T13:32:07.073Z,1024.1
2019-05-30T13:37:08.126Z,1024.07
2019-05-30T13:42:06.286Z,1024.09
2019-05-30T13:47:09.185Z,1023.97
2019-05-30T13:52:09.029Z,1023.95
2019-05-30T13:57:09.674Z,1024.03
2019-05-30T14:02:08.545Z,1024
2019-05-30T14:07:09.107Z,1023.91
2019-05-30T14:11:07.219Z,1024.02
2019-05-30T14:16:08.841Z,1023.92
2019-05-30T14:21:08.159Z,1023.91
2019-05-30T14:26:09.752Z,1023.91
2019-05-30T14:31:07.228Z,1023.88
2019-05-30T14:36:15.390Z,1023.84
2019-05-30T14:41:07.308Z,1023.83
2019-05-30T14:46:08.649Z,1023.87
2019-05-30T14:50:07.132Z,1023.97
2019-05-30T14:55:08.643Z,1023.88
2019-05-30T15:00:11.718Z,1023.77
2019-05-30T15:05:09.739Z,1023.74
2019-05-30T15:10:08.986Z,1023.74
2019-05-30T15:15:19.021Z,1023.83
2019-05-30T15:20:12.027Z,1023.77
2019-05-30T15:24:10.070Z,1023.74
2019-05-30T15:29:06.585Z,1023.71
2019-05-30T15:34:08.809Z,1023.62
2019-05-30T15:39:07.183Z,1023.67
2019-05-30T15:44:09.741Z,1023.64
2019-05-30T15:49:08.224Z,1023.62
2019-05-30T15:54:07.316Z,1023.59
2019-05-30T15:59:06.834Z,1023.58
2019-05-30T16:04:07.067Z,1023.5
2019-05-30T16:08:07.095Z,1023.51
2019-05-30T16:13:07.411Z,1023.56
2019-05-30T16:18:06.852Z,1023.56
2019-05-30T16:23:07.662Z,1023.56
2019-05-30T16:28:07.256Z,1023.48
2019-05-30T16:33:07.016Z,1023.5
2019-05-30T16:37:07.957Z,1023.5
2019-05-30T16:42:07.525Z,1023.55
2019-05-30T16:47:06.890Z,1023.52
2019-05-30T16:52:07.206Z,1023.52
2019-05-30T16:57:07.295Z,1023.55
2019-05-30T17:02:06.726Z,1023.6
2019-05-30T17:07:07.595Z,1023.52
2019-05-30T17:12:07.674Z,1023.45
2019-05-30T17:16:07.778Z,1023.59
2019-05-30T17:21:07.028Z,1023.63
2019-05-30T17:26:07.174Z,1023.65
2019-05-30T17:31:07.385Z,1023.71
2019-05-30T17:36:07.592Z,1023.69
2019-05-30T17:41:07.175Z,1023.71
2019-05-30T17:45:08.126Z,1023.79
2019-05-30T17:50:07.484Z,1023.79
2019-05-30T17:55:07.725Z,1023.83
2019-05-30T18:00:09.100Z,1023.91
2019-05-30T18:05:07.433Z,1024
2019-05-30T18:10:06.351Z,1023.99
2019-05-30T18:15:08.398Z,1024.04
2019-05-30T18:19:07.583Z,1024.09
2019-05-30T18:24:07.793Z,1024.13
2019-05-30T18:29:07.042Z,1024.15
2019-05-30T18:34:07.220Z,1024.12
2019-05-30T18:39:07.948Z,1024.25
2019-05-30T18:44:07.170Z,1024.23
2019-05-30T18:49:07.285Z,1024.29
2019-05-30T18:54:06.852Z,1024.25
2019-05-30T18:58:08.643Z,1024.19
2019-05-30T19:03:06.797Z,1024.26
2019-05-30T19:08:07.635Z,1024.39
2019-05-30T19:13:06.846Z,1024.39
2019-05-30T19:18:10.207Z,1024.47
2019-05-30T19:23:07.387Z,1024.51
2019-05-30T19:28:06.890Z,1024.63
2019-05-30T19:33:07.631Z,1024.7
2019-05-30T19:37:06.458Z,1024.69
2019-05-30T19:38:07.108Z,1024.69
2019-05-30T19:42:07.869Z,1024.77
2019-05-30T19:47:07.152Z,1024.77
2019-05-30T19:48:06.405Z,1024.77
2019-05-30T19:52:07.609Z,1024.79
2019-05-30T19:57:07.815Z,1024.81
2019-05-30T20:02:07.564Z,1024.94
2019-05-30T20:07:07.655Z,1024.94
2019-05-30T20:12:10.013Z,1025.05
2019-05-30T20:17:07.074Z,1025.06
2019-05-30T20:22:07.188Z,1025.08
2019-05-30T20:26:08.062Z,1025.02
2019-05-30T20:27:07.042Z,1025.02
2019-05-30T20:31:06.761Z,1025.06
2019-05-30T20:36:07.825Z,1025.08
2019-05-30T20:41:06.909Z,1025.05
2019-05-30T20:46:24.411Z,1025.05
2019-05-30T20:51:20.416Z,1025.05
2019-05-30T20:56:07.667Z,1025.09
2019-05-30T21:01:07.558Z,1025.05
2019-05-30T21:05:07.718Z,1025.07
2019-05-30T21:11:07.296Z,1025.11
2019-05-30T21:15:09.787Z,1025.11
2019-05-30T21:16:07.016Z,1025.11
2019-05-30T21:20:12.007Z,1025.16
2019-05-30T21:25:06.871Z,1025.15
2019-05-30T21:30:07.728Z,1025.18
2019-05-30T21:35:08.092Z,1025.19
2019-05-30T21:40:06.469Z,1025.2
2019-05-30T21:45:08.852Z,1025.18
2019-05-30T21:50:07.012Z,1025.19
2019-05-30T21:54:06.835Z,1025.26
2019-05-30T22:04:07.513Z,1025.3
2019-05-30T22:09:07.416Z,1025.24
2019-05-30T22:14:06.514Z,1025.25
2019-05-30T22:19:07.381Z,1025.29
2019-05-30T22:24:05.905Z,1025.27
2019-05-30T22:29:06.715Z,1025.27
2019-05-30T22:34:06.538Z,1025.28
2019-05-30T22:39:09.661Z,1025.29
2019-05-30T22:44:06.179Z,1025.29
2019-05-30T22:49:07.448Z,1025.27
2019-05-30T22:53:06.912Z,1025.28
2019-05-30T22:58:07.389Z,1025.22
2019-05-30T23:03:06.077Z,1025.26
2019-05-30T23:08:06.850Z,1025.22
2019-05-30T23:13:05.942Z,1025.26
2019-05-30T23:18:06.542Z,1025.23
2019-05-30T23:23:06.099Z,1025.2
2019-05-30T23:28:06.886Z,1025.18
2019-05-30T23:33:06.564Z,1025.18
2019-05-30T23:37:06.948Z,1025.17
2019-05-30T23:42:07.142Z,1025.17
2019-05-30T23:47:07.672Z,1025.13
2019-05-30T23:52:07.522Z,1025.09
2019-05-30T23:57:07.064Z,1025.14
